createdAt,value
2022-10-28T00:00:52.267Z,5.10
2022-10-28T00:03:19.003Z,5.97
2022-10-28T00:05:45.971Z,5.85
2022-10-28T00:08:12.381Z,4.88
2022-10-28T00:10:38.745Z,5.80
2022-10-28T00:13:05.148Z,5.80
2022-10-28T00:15:34.423Z,5.32
2022-10-28T00:18:00.815Z,4.97
2022-10-28T00:20:27.240Z,5.63
2022-10-28T00:22:53.601Z,5.40
2022-10-28T00:25:24.849Z,5.35
2022-10-28T00:27:52.796Z,5.30
2022-10-28T00:30:19.779Z,5.75
2022-10-28T00:32:46.157Z,5.85
2022-10-28T00:35:12.514Z,5.47
2022-10-28T00:37:38.870Z,5.32
2022-10-28T00:40:05.587Z,6.38
2022-10-28T00:42:31.942Z,5.20
2022-10-28T00:45:00.148Z,5.30
2022-10-28T00:47:55.241Z,5.70
2022-10-28T00:50:47.560Z,5.18
2022-10-28T00:53:17.146Z,7.25
2022-10-28T00:55:44.500Z,4.90
2022-10-28T00:58:11.654Z,4.82
2022-10-28T01:00:38.045Z,4.85
2022-10-28T01:03:04.564Z,5.13
2022-10-28T01:05:32.604Z,4.90
2022-10-28T01:08:01.604Z,4.85
2022-10-28T01:10:58.425Z,4.28
2022-10-28T01:13:34.622Z,4.70
2022-10-28T01:16:06.936Z,5.40
2022-10-28T01:19:00.921Z,4.07
2022-10-28T01:21:43.637Z,4.60
2022-10-28T01:24:09.976Z,4.25
2022-10-28T01:27:01.094Z,4.15
2022-10-28T01:29:48.480Z,5.55
2022-10-28T01:32:26.549Z,4.40
2022-10-28T01:35:01.450Z,4.05
2022-10-28T01:37:34.325Z,4.28
2022-10-28T01:40:09.701Z,4.18
2022-10-28T01:42:54.275Z,4.28
2022-10-28T01:45:29.001Z,4.70
2022-10-28T01:47:58.899Z,5.55
2022-10-28T01:50:29.605Z,4.13
2022-10-28T01:53:00.361Z,4.45
2022-10-28T01:55:30.188Z,4.85
2022-10-28T01:57:59.167Z,4.32
2022-10-28T02:00:26.426Z,5.80
2022-10-28T02:02:53.326Z,4.47
2022-10-28T02:05:49.008Z,3.90
2022-10-28T02:08:18.473Z,3.90
2022-10-28T02:11:10.335Z,4.45
2022-10-28T02:14:21.110Z,4.65
2022-10-28T02:16:56.212Z,3.72
2022-10-28T02:19:36.110Z,3.75
2022-10-28T02:22:16.240Z,4.40
2022-10-28T02:24:51.659Z,4.43
2022-10-28T02:27:30.957Z,3.20
2022-10-28T02:30:03.912Z,3.45
2022-10-28T02:32:32.275Z,3.47
2022-10-28T02:35:01.053Z,5.30
2022-10-28T02:37:30.543Z,3.58
2022-10-28T02:40:00.094Z,4.78
2022-10-28T02:42:29.508Z,4.03
2022-10-28T02:45:09.601Z,4.05
2022-10-28T02:47:37.741Z,3.97
2022-10-28T02:50:07.901Z,4.07
2022-10-28T02:52:34.720Z,3.80
2022-10-28T02:55:04.639Z,3.53
2022-10-28T02:57:35.097Z,4.30
2022-10-28T03:00:06.485Z,3.47
2022-10-28T03:02:33.004Z,4.00
2022-10-28T03:04:59.381Z,4.47
2022-10-28T03:07:25.807Z,4.60
2022-10-28T03:09:52.191Z,3.70
2022-10-28T03:12:18.553Z,3.85
2022-10-28T03:14:44.913Z,4.40
2022-10-28T03:17:11.314Z,3.97
2022-10-28T03:19:37.680Z,3.80
2022-10-28T03:22:04.102Z,4.65
2022-10-28T03:24:30.468Z,4.00
2022-10-28T03:26:57.024Z,4.47
2022-10-28T03:29:23.440Z,4.55
2022-10-28T03:31:49.816Z,4.32
2022-10-28T03:34:16.232Z,5.15
2022-10-28T03:36:42.723Z,4.88
2022-10-28T03:39:09.093Z,4.45
2022-10-28T03:41:35.502Z,5.57
2022-10-28T03:44:01.889Z,4.78
2022-10-28T03:46:29.156Z,3.72
2022-10-28T03:48:57.607Z,4.10
2022-10-28T03:51:24.102Z,4.60
2022-10-28T03:53:50.504Z,4.32
2022-10-28T03:56:16.900Z,3.35
2022-10-28T03:58:43.322Z,4.40
2022-10-28T04:01:09.867Z,3.90
2022-10-28T04:03:36.345Z,4.75
2022-10-28T04:06:02.718Z,4.22
2022-10-28T04:08:29.129Z,4.38
2022-10-28T04:10:55.514Z,4.20
2022-10-28T04:13:21.942Z,6.05
2022-10-28T04:15:48.317Z,4.97
2022-10-28T04:18:14.715Z,5.00
2022-10-28T04:20:41.083Z,4.85
2022-10-28T04:23:08.268Z,4.72
2022-10-28T04:25:35.885Z,4.90
2022-10-28T04:28:02.252Z,4.90
2022-10-28T04:30:28.624Z,4.13
2022-10-28T04:32:55.031Z,5.85
2022-10-28T04:35:21.461Z,5.88
2022-10-28T04:37:47.990Z,5.43
2022-10-28T04:40:14.372Z,4.38
2022-10-28T04:42:40.787Z,4.85
2022-10-28T04:45:08.161Z,3.95
2022-10-28T04:47:34.757Z,4.45
2022-10-28T04:50:01.299Z,4.63
2022-10-28T04:52:27.701Z,4.82
2022-10-28T04:54:54.063Z,4.60
2022-10-28T04:57:20.434Z,5.45
2022-10-28T04:59:46.791Z,4.63
2022-10-28T05:02:13.434Z,7.20
2022-10-28T05:04:39.945Z,4.25
2022-10-28T05:07:06.872Z,4.50
2022-10-28T05:09:33.256Z,5.65
2022-10-28T05:11:59.610Z,4.40
2022-10-28T05:14:26.124Z,4.15
2022-10-28T05:16:52.480Z,5.00
2022-10-28T05:19:18.912Z,4.72
2022-10-28T05:21:45.314Z,5.15
2022-10-28T05:24:11.721Z,5.07
2022-10-28T05:26:38.071Z,4.75
2022-10-28T05:29:04.440Z,5.10
2022-10-28T05:31:30.800Z,4.70
2022-10-28T05:33:57.163Z,5.75
2022-10-28T05:36:23.517Z,4.80
2022-10-28T05:38:49.921Z,5.07
2022-10-28T05:41:16.320Z,5.18
2022-10-28T05:43:42.692Z,4.90
2022-10-28T05:46:09.425Z,4.90
2022-10-28T05:48:35.788Z,4.38
2022-10-28T05:51:02.141Z,5.18
2022-10-28T05:53:28.517Z,4.68
2022-10-28T05:55:54.930Z,5.50
2022-10-28T05:58:21.302Z,5.20
2022-10-28T06:00:47.652Z,4.32
2022-10-28T06:03:14.067Z,4.82
2022-10-28T06:05:44.490Z,4.93
2022-10-28T06:08:12.349Z,5.47
2022-10-28T06:10:39.369Z,5.45
2022-10-28T06:13:04.198Z,4.93
2022-10-28T06:15:30.791Z,5.10
2022-10-28T06:17:57.174Z,4.82
2022-10-28T06:20:23.572Z,5.38
2022-10-28T06:22:54.135Z,5.20
2022-10-28T06:25:21.644Z,5.32
2022-10-28T06:27:55.226Z,4.90
2022-10-28T06:30:22.703Z,4.90
2022-10-28T06:32:49.121Z,5.40
2022-10-28T06:35:16.024Z,4.75
2022-10-28T06:37:42.537Z,5.45
2022-10-28T06:40:09.150Z,5.53
2022-10-28T06:42:35.509Z,5.00
2022-10-28T06:45:02.236Z,5.78
2022-10-28T06:47:30.104Z,4.60
2022-10-28T06:49:56.590Z,4.97
2022-10-28T06:52:22.973Z,5.30
2022-10-28T06:54:49.342Z,5.18
2022-10-28T06:57:15.691Z,4.78
2022-10-28T06:59:42.136Z,4.47
2022-10-28T07:02:11.593Z,4.50
2022-10-28T07:04:38.297Z,5.20
2022-10-28T07:07:04.652Z,4.88
2022-10-28T07:09:31.071Z,5.07
2022-10-28T07:12:02.260Z,4.88
2022-10-28T07:14:31.955Z,4.38
2022-10-28T07:16:58.320Z,4.95
2022-10-28T07:19:24.690Z,5.05
2022-10-28T07:21:51.298Z,4.60
2022-10-28T07:24:17.845Z,5.18
2022-10-28T07:26:44.271Z,5.85
2022-10-28T07:29:10.673Z,5.40
2022-10-28T07:31:37.037Z,4.85
2022-10-28T07:34:03.485Z,5.00
2022-10-28T07:36:29.881Z,5.38
2022-10-28T07:38:56.311Z,5.93
2022-10-28T07:41:23.272Z,7.07
2022-10-28T07:43:50.202Z,6.00
2022-10-28T07:46:17.648Z,5.38
2022-10-28T07:48:44.074Z,6.65
2022-10-28T07:51:12.348Z,5.55
2022-10-28T07:53:39.093Z,5.25
2022-10-28T07:56:13.432Z,5.30
2022-10-28T07:58:40.805Z,5.22
2022-10-28T08:01:08.550Z,5.05
2022-10-28T08:03:39.087Z,5.25
2022-10-28T08:06:11.620Z,4.85
2022-10-28T08:08:38.610Z,5.35
2022-10-28T08:11:09.536Z,4.20
2022-10-28T08:13:39.440Z,4.00
2022-10-28T08:16:08.092Z,3.88
2022-10-28T08:18:35.612Z,4.97
2022-10-28T08:21:02.985Z,5.03
2022-10-28T08:23:29.926Z,4.28
2022-10-28T08:25:56.491Z,5.50
2022-10-28T08:28:23.928Z,4.95
2022-10-28T08:31:04.308Z,4.85
2022-10-28T08:33:34.982Z,5.35
2022-10-28T08:36:01.353Z,4.65
2022-10-28T08:38:27.791Z,5.07
2022-10-28T08:41:15.741Z,5.13
2022-10-28T08:43:57.460Z,4.75
2022-10-28T08:47:00.542Z,5.00
2022-10-28T08:49:27.382Z,4.50
2022-10-28T08:52:01.173Z,4.45
2022-10-28T08:54:32.780Z,4.20
2022-10-28T08:57:01.386Z,4.57
2022-10-28T08:59:37.089Z,4.63
2022-10-28T09:02:11.854Z,5.07
2022-10-28T09:04:44.773Z,4.15
2022-10-28T09:07:18.025Z,4.05
2022-10-28T09:09:45.627Z,5.20
2022-10-28T09:12:34.908Z,4.55
2022-10-28T09:15:32.184Z,5.97
2022-10-28T09:18:20.149Z,4.85
2022-10-28T09:20:56.594Z,3.95
2022-10-28T09:23:56.059Z,5.15
2022-10-28T09:26:25.124Z,4.38
2022-10-28T09:29:04.704Z,4.07
2022-10-28T09:31:41.053Z,5.25
2022-10-28T09:34:17.516Z,3.90
2022-10-28T09:36:49.703Z,4.57
2022-10-28T09:39:26.835Z,4.57
2022-10-28T09:41:54.973Z,4.63
2022-10-28T09:44:38.624Z,4.40
2022-10-28T09:47:14.285Z,4.03
2022-10-28T09:49:40.974Z,3.90
2022-10-28T09:52:07.242Z,4.50
2022-10-28T09:54:40.891Z,3.97
2022-10-28T09:57:07.420Z,4.15
2022-10-28T09:59:34.340Z,4.78
2022-10-28T10:02:00.999Z,5.22
2022-10-28T10:04:31.109Z,3.83
2022-10-28T10:07:11.069Z,4.03
2022-10-28T10:09:38.634Z,4.25
2022-10-28T10:12:07.384Z,5.00
2022-10-28T10:14:39.139Z,4.10
2022-10-28T10:17:10.318Z,4.38
2022-10-28T10:20:04.690Z,4.03
2022-10-28T10:22:42.806Z,4.10
2022-10-28T10:25:29.861Z,4.38
2022-10-28T10:28:01.856Z,3.67
2022-10-28T10:30:45.304Z,3.58
2022-10-28T10:33:33.992Z,4.35
2022-10-28T10:36:09.533Z,3.85
2022-10-28T10:38:36.345Z,3.90
2022-10-28T10:41:03.166Z,3.83
2022-10-28T10:43:31.761Z,3.60
2022-10-28T10:46:16.288Z,3.60
2022-10-28T10:48:42.683Z,3.60
2022-10-28T10:51:18.325Z,4.20
2022-10-28T10:53:48.586Z,3.67
2022-10-28T10:56:23.839Z,3.65
2022-10-28T10:58:52.468Z,3.58
2022-10-28T11:01:22.230Z,3.97
2022-10-28T11:03:55.088Z,4.22
2022-10-28T11:06:24.888Z,4.30
2022-10-28T11:08:58.949Z,3.80
2022-10-28T11:11:36.843Z,3.70
2022-10-28T11:14:08.297Z,3.83
2022-10-28T11:17:06.413Z,4.10
2022-10-28T11:19:37.710Z,4.10
2022-10-28T11:22:25.941Z,3.75
2022-10-28T11:25:32.487Z,5.03
2022-10-28T11:28:24.982Z,3.95
2022-10-28T11:30:59.009Z,4.45
2022-10-28T11:33:40.030Z,4.57
2022-10-28T11:36:35.526Z,4.37
2022-10-28T11:39:18.935Z,3.90
2022-10-28T11:42:15.179Z,3.47
2022-10-28T11:44:59.211Z,3.88
2022-10-28T11:47:41.138Z,4.07
2022-10-28T11:50:22.313Z,4.30
2022-10-28T11:53:00.839Z,4.40
2022-10-28T11:55:39.746Z,4.25
2022-10-28T11:58:20.895Z,3.47
2022-10-28T12:00:54.149Z,4.00
2022-10-28T12:03:47.295Z,3.80
2022-10-28T12:06:20.012Z,3.75
2022-10-28T12:08:52.392Z,3.92
2022-10-28T12:11:32.321Z,3.60
2022-10-28T12:14:32.856Z,4.00
2022-10-28T12:17:06.411Z,4.30
2022-10-28T12:19:38.245Z,3.58
2022-10-28T12:22:10.599Z,4.15
2022-10-28T12:24:37.786Z,3.67
2022-10-28T12:27:15.437Z,4.88
2022-10-28T12:29:48.093Z,3.80
2022-10-28T12:32:24.956Z,3.55
2022-10-28T12:35:04.254Z,3.90
2022-10-28T12:37:53.752Z,4.63
2022-10-28T12:40:23.039Z,4.40
2022-10-28T12:42:57.572Z,3.83
2022-10-28T12:45:24.938Z,3.53
2022-10-28T12:47:57.942Z,4.32
2022-10-28T12:50:44.750Z,3.83
2022-10-28T12:53:17.097Z,3.10
2022-10-28T12:55:55.667Z,4.07
2022-10-28T12:58:38.665Z,3.53
2022-10-28T13:01:17.293Z,3.95
2022-10-28T13:03:43.825Z,4.45
2022-10-28T13:06:15.882Z,3.78
2022-10-28T13:08:51.329Z,3.55
2022-10-28T13:11:20.751Z,3.85
2022-10-28T13:14:33.480Z,4.00
2022-10-28T13:17:14.461Z,4.05
2022-10-28T13:20:04.592Z,3.30
2022-10-28T13:22:56.494Z,4.25
2022-10-28T13:27:57.444Z,3.13
2022-10-28T13:30:24.125Z,3.22
2022-10-28T13:33:08.883Z,4.07
2022-10-28T13:35:35.616Z,4.57
2022-10-28T13:38:02.739Z,3.83
2022-10-28T13:40:32.152Z,3.75
2022-10-28T13:42:59.980Z,3.97
2022-10-28T13:45:55.103Z,4.35
2022-10-28T13:48:42.727Z,3.72
2022-10-28T13:51:08.977Z,3.80
2022-10-28T13:53:47.658Z,4.07
2022-10-28T13:56:19.663Z,3.22
2022-10-28T13:58:51.675Z,3.83
2022-10-28T14:04:04.582Z,4.75
2022-10-28T14:06:32.391Z,4.38
2022-10-28T14:08:58.993Z,3.90
2022-10-28T14:11:29.066Z,3.88
2022-10-28T14:13:58.518Z,3.92
2022-10-28T14:16:37.563Z,3.95
2022-10-28T14:19:07.159Z,3.50
2022-10-28T14:21:53.498Z,3.75
2022-10-28T14:24:57.316Z,3.72
2022-10-28T14:27:28.687Z,4.07
2022-10-28T14:29:54.974Z,3.58
2022-10-28T14:32:50.492Z,3.35
2022-10-28T14:35:25.487Z,3.72
2022-10-28T14:38:04.143Z,5.22
2022-10-28T14:40:50.727Z,3.60
2022-10-28T14:43:51.766Z,3.83
2022-10-28T14:46:43.967Z,4.20
2022-10-28T14:49:27.512Z,3.70
2022-10-28T14:51:54.050Z,4.03
2022-10-28T14:54:38.226Z,3.85
2022-10-28T14:57:06.231Z,3.70
2022-10-28T14:59:37.820Z,4.55
2022-10-28T15:02:15.089Z,3.22
2022-10-28T15:04:43.457Z,3.55
2022-10-28T15:07:18.384Z,4.07
2022-10-28T15:09:47.346Z,3.95
2022-10-28T15:12:16.661Z,3.88
2022-10-28T15:14:46.004Z,3.83
2022-10-28T15:17:44.905Z,4.05
2022-10-28T15:20:22.276Z,3.75
2022-10-28T15:22:49.089Z,5.05
2022-10-28T15:25:17.915Z,4.65
2022-10-28T15:27:45.296Z,4.75
2022-10-28T15:30:16.174Z,4.55
2022-10-28T15:32:42.545Z,3.63
2022-10-28T15:35:44.883Z,3.50
2022-10-28T15:38:29.512Z,4.70
2022-10-28T15:40:55.963Z,4.78
2022-10-28T15:43:25.449Z,4.25
2022-10-28T15:45:52.161Z,4.47
2022-10-28T15:48:27.640Z,4.25
2022-10-28T15:51:14.595Z,4.32
2022-10-28T15:53:42.343Z,4.40
2022-10-28T15:56:17.852Z,4.68
2022-10-28T15:58:46.368Z,5.03
2022-10-28T16:01:38.062Z,4.60
2022-10-28T16:04:33.633Z,4.43
2022-10-28T16:07:07.052Z,5.32
2022-10-28T16:09:42.281Z,4.82
2022-10-28T16:12:20.153Z,4.47
2022-10-28T16:14:56.038Z,5.28
2022-10-28T16:17:26.644Z,4.68
2022-10-28T16:19:55.558Z,4.13
2022-10-28T16:22:23.462Z,4.40
2022-10-28T16:24:50.210Z,4.70
2022-10-28T16:27:21.634Z,4.53
2022-10-28T16:29:48.515Z,4.80
2022-10-28T16:32:16.488Z,4.20
2022-10-28T16:34:43.128Z,4.40
2022-10-28T16:37:30.725Z,5.28
2022-10-28T16:40:00.105Z,4.57
2022-10-28T16:42:26.663Z,5.13
2022-10-28T16:44:53.082Z,5.80
2022-10-28T16:47:21.636Z,4.80
2022-10-28T16:49:54.511Z,6.28
2022-10-28T16:52:29.007Z,5.72
2022-10-28T16:54:56.174Z,5.93
2022-10-28T16:59:50.569Z,4.28
2022-10-28T17:02:22.112Z,4.35
2022-10-28T17:04:48.579Z,4.65
2022-10-28T17:07:16.337Z,6.00
2022-10-28T17:09:43.123Z,5.28
2022-10-28T17:12:14.407Z,5.22
2022-10-28T17:14:41.035Z,4.63
2022-10-28T17:17:07.629Z,5.40
2022-10-28T17:19:34.047Z,4.60
2022-10-28T17:22:00.409Z,5.10
2022-10-28T17:24:26.810Z,6.22
2022-10-28T17:26:53.244Z,6.47
2022-10-28T17:29:19.611Z,6.55
2022-10-28T17:31:45.977Z,5.53
2022-10-28T17:34:12.337Z,4.20
2022-10-28T17:36:38.710Z,5.78
2022-10-28T17:39:05.238Z,9.77
2022-10-28T17:41:31.678Z,13.82
2022-10-28T17:43:58.212Z,12.05
2022-10-28T17:46:24.579Z,7.03
2022-10-28T17:48:50.987Z,5.50
2022-10-28T17:51:17.550Z,5.22
2022-10-28T17:53:43.913Z,6.68
2022-10-28T17:56:10.344Z,4.60
2022-10-28T17:58:36.734Z,6.35
2022-10-28T18:01:07.672Z,5.28
2022-10-28T18:03:38.938Z,4.72
2022-10-28T18:06:07.649Z,5.65
2022-10-28T18:08:41.783Z,5.40
2022-10-28T18:11:10.254Z,5.20
2022-10-28T18:13:38.729Z,5.28
2022-10-28T18:16:08.968Z,6.07
2022-10-28T18:18:41.007Z,5.75
2022-10-28T18:21:10.021Z,5.70
2022-10-28T18:23:36.449Z,5.78
2022-10-28T18:26:14.889Z,5.38
2022-10-28T18:28:42.878Z,5.55
2022-10-28T18:31:14.051Z,5.50
2022-10-28T18:33:42.916Z,5.40
2022-10-28T18:36:18.441Z,6.22
2022-10-28T18:38:44.936Z,5.70
2022-10-28T18:41:16.677Z,6.10
2022-10-28T18:43:43.058Z,6.78
2022-10-28T18:46:09.681Z,5.97
2022-10-28T18:48:36.586Z,5.63
2022-10-28T18:51:09.400Z,6.10
2022-10-28T18:53:37.160Z,6.55
2022-10-28T18:56:07.480Z,5.68
2022-10-28T18:58:34.160Z,6.53
2022-10-28T19:01:12.722Z,6.32
2022-10-28T19:03:39.689Z,6.70
2022-10-28T19:06:08.523Z,6.80
2022-10-28T19:08:34.930Z,6.78
2022-10-28T19:11:01.927Z,6.88
2022-10-28T19:13:28.362Z,7.07
2022-10-28T19:15:54.795Z,6.20
2022-10-28T19:18:21.816Z,6.05
2022-10-28T19:20:48.272Z,7.35
2022-10-28T19:23:14.690Z,6.68
2022-10-28T19:25:41.148Z,7.15
2022-10-28T19:28:07.556Z,6.72
2022-10-28T19:30:34.713Z,6.03
2022-10-28T19:33:01.111Z,7.68
2022-10-28T19:35:27.475Z,6.88
2022-10-28T19:37:53.867Z,6.40
2022-10-28T19:40:20.838Z,7.30
2022-10-28T19:42:47.253Z,7.38
2022-10-28T19:45:13.726Z,5.78
2022-10-28T19:47:40.094Z,6.53
2022-10-28T19:50:07.016Z,7.00
2022-10-28T19:52:33.409Z,6.80
2022-10-28T19:54:59.777Z,7.38
2022-10-28T19:57:26.182Z,5.80
2022-10-28T19:59:52.537Z,7.15
2022-10-28T20:02:19.048Z,6.80
2022-10-28T20:04:45.581Z,6.45
2022-10-28T20:07:11.952Z,5.45
2022-10-28T20:09:38.325Z,6.50
2022-10-28T20:12:04.896Z,5.97
2022-10-28T20:14:32.531Z,6.47
2022-10-28T20:17:05.507Z,5.78
2022-10-28T20:19:33.104Z,6.63
2022-10-28T20:21:59.466Z,6.40
2022-10-28T20:24:26.346Z,7.28
2022-10-28T20:26:52.715Z,7.80
2022-10-28T20:29:19.105Z,6.22
2022-10-28T20:31:45.589Z,6.82
2022-10-28T20:34:11.952Z,6.93
2022-10-28T20:36:40.428Z,6.35
2022-10-28T20:39:13.990Z,7.07
2022-10-28T20:41:41.481Z,6.78
2022-10-28T20:44:08.121Z,6.68
2022-10-28T20:46:34.669Z,7.07
2022-10-28T20:49:01.238Z,6.85
2022-10-28T20:51:29.472Z,7.25
2022-10-28T20:53:55.970Z,7.68
2022-10-28T20:56:24.195Z,7.00
2022-10-28T20:58:50.749Z,7.38
2022-10-28T21:01:25.888Z,7.55
2022-10-28T21:03:57.141Z,6.93
2022-10-28T21:06:24.019Z,6.50
2022-10-28T21:08:50.756Z,6.95
2022-10-28T21:11:17.547Z,6.10
2022-10-28T21:13:46.085Z,6.55
2022-10-28T21:16:13.292Z,6.90
2022-10-28T21:18:40.071Z,6.43
2022-10-28T21:21:06.927Z,7.40
2022-10-28T21:23:33.373Z,7.20
2022-10-28T21:26:04.535Z,6.97
2022-10-28T21:28:32.053Z,6.90
2022-10-28T21:31:06.566Z,7.65
2022-10-28T21:33:34.315Z,7.15
2022-10-28T21:36:03.522Z,6.80
2022-10-28T21:38:30.235Z,7.97
2022-10-28T21:41:12.797Z,8.90
2022-10-28T21:43:42.382Z,7.40
2022-10-28T21:46:08.956Z,7.90
2022-10-28T21:48:36.252Z,7.63
2022-10-28T21:51:08.506Z,7.55
2022-10-28T21:53:38.622Z,7.95
2022-10-28T21:56:08.336Z,8.13
2022-10-28T21:58:36.414Z,8.07
2022-10-28T22:01:27.008Z,7.03
2022-10-28T22:03:55.160Z,9.48
2022-10-28T22:06:21.802Z,8.88
2022-10-28T22:08:48.182Z,7.32
2022-10-28T22:11:19.694Z,8.40
2022-10-28T22:13:47.479Z,8.30
2022-10-28T22:16:15.880Z,6.80
2022-10-28T22:18:42.992Z,8.45
2022-10-28T22:21:11.783Z,7.63
2022-10-28T22:23:38.276Z,7.45
2022-10-28T22:26:06.341Z,9.00
2022-10-28T22:28:32.819Z,8.70
2022-10-28T22:31:03.667Z,7.65
2022-10-28T22:33:30.313Z,10.05
2022-10-28T22:36:01.276Z,8.23
2022-10-28T22:38:28.158Z,7.60
2022-10-28T22:41:13.734Z,7.80
2022-10-28T22:43:40.987Z,9.07
2022-10-28T22:46:08.054Z,7.28
2022-10-28T22:48:34.503Z,8.25
2022-10-28T22:51:00.877Z,8.15
2022-10-28T22:53:27.421Z,9.43
2022-10-28T22:55:54.254Z,8.70
2022-10-28T22:58:21.325Z,7.38
2022-10-28T23:00:48.129Z,8.27
2022-10-28T23:03:14.568Z,8.85
2022-10-28T23:05:41.304Z,8.73
2022-10-28T23:08:07.940Z,8.50
2022-10-28T23:10:34.338Z,9.00
2022-10-28T23:13:02.107Z,8.10
2022-10-28T23:15:29.160Z,8.27
2022-10-28T23:17:56.313Z,7.68
2022-10-28T23:20:24.597Z,8.43
2022-10-28T23:22:51.135Z,9.02
2022-10-28T23:25:17.496Z,8.70
2022-10-28T23:27:44.308Z,8.60
2022-10-28T23:30:12.771Z,8.77
2022-10-28T23:32:39.783Z,10.23
2022-10-28T23:35:07.116Z,8.57
2022-10-28T23:37:33.730Z,8.73
2022-10-28T23:40:00.150Z,7.97
2022-10-28T23:42:26.578Z,7.70
2022-10-28T23:44:52.936Z,7.55
2022-10-28T23:47:19.317Z,9.45
2022-10-28T23:49:45.726Z,7.85
2022-10-28T23:52:12.109Z,7.93
2022-10-28T23:54:38.469Z,7.93
2022-10-28T23:57:04.910Z,7.03
2022-10-28T23:59:31.301Z,8.45
